Data for 12/22/2006

Time Sea-Level Adjusted Pressure Absolute Pressure Temperature Relative Humidity Dew Point   
(mb) (inHg) (mb) (inHg) (C) (F) (%) (C) (F)
00:05 1016 30 846 24.98 -0.3 31.5 56 -7.9 17.7
00:10 1016 30 846 24.98 -0.4 31.2 60 -7.3 18.8
00:15 1016 30 846 24.98 -0.7 30.7 59 -7.7 18.2
00:20 1016 30 846 24.98 -0.9 30.4 58 -8.2 17.3
00:25 1016 30 846 24.98 -1 30.2 59 -8.1 17.4
00:30 1016 30 846 24.98 -0.9 30.4 56 -8.6 16.5
00:35 1016 30 845 24.95 -1 30.1 59 -8.1 17.4
00:40 1016 30 845 24.95 -1 30.1 54 -9.2 15.4
00:45 1016 30 845 24.95 -0.9 30.3 56 -8.7 16.4
00:50 1016 30 846 24.98 -0.7 30.7 55 -8.6 16.5
00:55 1016 30 846 24.98 -0.3 31.4 54 -8.5 16.7
01:00 1017 30.03 846 24.98 -0.3 31.5 54 -8.5 16.7
01:05 1017 30.03 846 24.98 -0.3 31.5 55 -8.3 17.1
01:10 1017 30.03 846 24.98 -0.2 31.6 55 -8.2 17.3
01:15 1017 30.03 846 24.98 -0.3 31.4 56 -8.2 17.3
01:20 1017 30.03 846 24.98 -0.5 31.2 57 -7.9 17.7
01:25 1017 30.03 846 24.98 -0.6 30.9 57 -8.1 17.4
01:30 1017 30.03 846 24.98 -0.6 30.9 57 -8.1 17.4
01:35 1017 30.03 846 24.98 -0.6 30.9 57 -8.1 17.4
01:40 1017 30.03 846 24.98 -0.7 30.8 57 -8.2 17.2
01:45 1017 30.03 846 24.98 -0.6 30.9 55 -8.5 16.7
01:50 1017 30.03 846 24.98 -0.7 30.8 56 -8.4 16.9
01:55 1017 30.03 846 24.98 -0.7 30.8 56 -8.4 16.8
02:00 1017 30.03 846 24.98 -0.5 31.1 56 -8.3 17.1
02:05 1017 30.03 846 24.98 -0.6 30.9 56 -8.3 17.1
02:10 1017 30.03 846 24.98 -0.6 30.9 57 -8.1 17.4
02:15 1017 30.03 846 24.98 -0.3 31.4 56 -8.1 17.4
02:20 1017 30.03 846 24.98 -0.3 31.4 57 -7.8 18
02:25 1017 30.03 846 24.98 -0.4 31.3 57 -7.9 17.8
02:30 1017 30.03 846 24.98 -0.4 31.3 56 -8 17.5
02:35 1017 30.03 846 24.98 -0.5 31.2 56 -8.2 17.2
02:40 1017 30.03 846 24.98 -0.4 31.2 58 -7.7 18.2
02:45 1017 30.03 846 24.98 -0.5 31.1 61 -7 19.3
02:50 1017 30.03 846 24.98 -0.7 30.8 66 -6.3 20.7
02:55 1017 30.03 846 24.98 -1 30.2 70 -5.7 21.7
03:00 1017 30.03 846 24.98 -1.1 30 72 -5.5 22.2
03:05 1017 30.03 846 24.98 -1.2 29.8 73 -5.4 22.3
03:10 1017 30.03 846 24.98 -1.7 29 77 -5.2 22.6
03:15 1017 30.03 846 24.98 -1.8 28.8 79 -4.9 23.1
03:20 1017 30.03 846 24.98 -1.8 28.8 82 -4.5 23.9
03:25 1017 30.03 846 24.98 -1.9 28.5 84 -4.2 24.4
03:30 1017 30.03 846 24.98 -1.9 28.6 85 -4.1 24.7
03:35 1017 30.03 847 25.01 -2 28.4 87 -3.9 24.9
03:40 1017 30.03 847 25.01 -2 28.3 88 -3.7 25.3
03:45 1017 30.03 847 25.01 -2 28.4 89 -3.5 25.6
03:50 1017 30.03 847 25.01 -2.1 28.2 90 -3.5 25.6
03:55 1017 30.03 847 25.01 -2.2 28 91 -3.5 25.7
04:00 1017 30.03 847 25.01 -2.5 27.6 92 -3.6 25.6
04:05 1017 30.03 846 24.98 -2.7 27.2 94 -3.6 25.5
04:10 1017 30.03 846 24.98 -2.7 27.2 94 -3.5 25.7
04:15 1017 30.03 846 24.98 -2.8 27 95 -3.5 25.7
04:20 1017 30.03 847 25.01 -2.8 26.9 95 -3.6 25.6
04:25 1017 30.03 847 25.01 -2.9 26.7 95 -3.7 25.4
04:30 1017 30.03 847 25.01 -3 26.5 95 -3.8 25.2
04:35 1017 30.03 847 25.01 -3.1 26.4 95 -3.8 25.1
04:40 1017 30.03 847 25.01 -3.1 26.3 95 -3.8 25.2
04:45 1017 30.03 847 25.01 -3.2 26.2 96 -3.8 25.2
04:50 1017 30.03 847 25.01 -3.2 26.2 96 -3.7 25.3
04:55 1018 30.06 847 25.01 -3.2 26.3 96 -3.7 25.4
05:00 1018 30.06 847 25.01 -3 26.6 96 -3.5 25.6
05:05 1018 30.06 847 25.01 -3.1 26.5 96 -3.7 25.4
05:10 1018 30.06 847 25.01 -3.2 26.2 96 -3.8 25.2
05:15 1018 30.06 847 25.01 -3.3 26.1 97 -3.8 25.2
05:20 1018 30.06 847 25.01 -3.2 26.3 96 -3.7 25.4
05:25 1018 30.06 847 25.01 -3.2 26.3 96 -3.7 25.4
05:30 1018 30.06 847 25.01 -3.1 26.5 96 -3.6 25.5
05:35 1018 30.06 847 25.01 -3.1 26.5 96 -3.6 25.6
05:40 1018 30.06 847 25.01 -3 26.6 96 -3.5 25.6
05:45 1018 30.06 847 25.01 -3 26.6 96 -3.5 25.7
05:50 1018 30.06 847 25.01 -2.9 26.8 96 -3.5 25.7
05:55 1018 30.06 847 25.01 -2.8 26.9 95 -3.5 25.8
06:00 1018 30.06 847 25.01 -2.9 26.8 95 -3.6 25.6
06:05 1018 30.06 847 25.01 -2.9 26.8 96 -3.5 25.8
06:10 1018 30.06 847 25.01 -2.7 27.1 95 -3.4 25.8
06:15 1018 30.06 847 25.01 -2.7 27.1 95 -3.5 25.8
06:20 1018 30.06 847 25.01 -2.7 27.1 95 -3.5 25.7
06:25 1018 30.06 847 25.01 -2.9 26.8 95 -3.6 25.4
06:30 1018 30.06 847 25.01 -3 26.5 95 -3.7 25.3
06:35 1018 30.06 847 25.01 -3 26.6 96 -3.6 25.5
06:40 1018 30.06 847 25.01 -2.9 26.7 96 -3.5 25.7
06:45 1018 30.06 847 25.01 -2.8 26.9 96 -3.5 25.8
06:50 1018 30.06 847 25.01 -2.9 26.8 96 -3.5 25.8
06:55 1018 30.06 847 25.01 -2.8 27 95 -3.5 25.7
07:00 1018 30.06 847 25.01 -2.9 26.8 95 -3.6 25.5
07:05 1018 30.06 847 25.01 -3 26.6 95 -3.7 25.4
07:10 1018 30.06 847 25.01 -3 26.5 96 -3.6 25.5
07:15 1018 30.06 847 25.01 -3 26.6 96 -3.6 25.6
07:20 1018 30.06 847 25.01 -3 26.7 96 -3.5 25.7
07:25 1018 30.06 847 25.01 -2.9 26.8 96 -3.5 25.6
07:30 1018 30.06 847 25.01 -2.9 26.7 96 -3.5 25.7
07:35 1018 30.06 847 25.01 -2.8 26.9 96 -3.4 25.8
07:40 1018 30.06 847 25.01 -2.9 26.7 95 -3.6 25.6
07:45 1018 30.06 847 25.01 -3 26.6 96 -3.6 25.5
07:50 1018 30.06 847 25.01 -3 26.6 96 -3.6 25.5
07:55 1018 30.06 847 25.01 -2.9 26.8 96 -3.5 25.7
08:00 1018 30.06 847 25.01 -2.9 26.8 95 -3.6 25.6
08:05 1018 30.06 847 25.01 -3 26.7 95 -3.6 25.5
08:10 1018 30.06 847 25.01 -2.9 26.7 95 -3.6 25.6
08:15 1018 30.06 847 25.01 -2.9 26.7 95 -3.6 25.6
08:20 1018 30.06 847 25.01 -3 26.6 96 -3.6 25.6
08:25 1018 30.06 848 25.04 -3 26.7 96 -3.5 25.6
08:30 1018 30.06 848 25.04 -3 26.7 96 -3.5 25.6
08:35 1019 30.09 848 25.04 -2.9 26.7 96 -3.5 25.7
08:40 1019 30.09 848 25.04 -2.9 26.8 96 -3.5 25.8
08:45 1019 30.09 848 25.04 -2.8 26.9 95 -3.5 25.8
08:50 1019 30.09 848 25.04 -2.9 26.9 95 -3.5 25.7
08:55 1019 30.09 848 25.04 -2.8 26.9 95 -3.5 25.7
09:00 1019 30.09 848 25.04 -2.8 27 95 -3.5 25.8
09:05 1019 30.09 848 25.04 -2.6 27.3 95 -3.4 25.9
09:10 1019 30.09 848 25.04 -2.6 27.3 94 -3.4 25.9
09:15 1019 30.09 848 25.04 -2.4 27.7 94 -3.2 26.2
09:20 1019 30.09 848 25.04 -2.2 28 93 -3.2 26.2
09:25 1019 30.09 848 25.04 -2.1 28.3 92 -3.2 26.2
09:30 1019 30.09 848 25.04 -2 28.5 92 -3.2 26.3
09:35 1019 30.09 849 25.07 -1.8 28.8 91 -3.1 26.4
09:40 1019 30.09 849 25.07 -1.6 29.2 90 -3.1 26.5
09:45 1019 30.09 849 25.07 -1.5 29.3 89 -3.1 26.5
09:50 1019 30.09 849 25.07 -1.5 29.4 89 -3.1 26.4
09:55 1019 30.09 849 25.07 -1.5 29.3 89 -3.1 26.4
10:00 1019 30.09 849 25.07 -1.4 29.4 89 -3 26.5
10:05 1019 30.09 849 25.07 -1.3 29.6 88 -3 26.6
10:10 1019 30.09 849 25.07 -1.3 29.7 88 -3 26.6
10:15 1019 30.09 849 25.07 -1.4 29.5 88 -3.1 26.5
10:20 1019 30.09 849 25.07 -1.3 29.6 89 -3 26.6
10:25 1020 30.12 849 25.07 -1.4 29.5 89 -3 26.7
10:30 1020 30.12 849 25.07 -1.4 29.4 88 -3.1 26.3
10:35 1020 30.12 849 25.07 -1.6 29.2 90 -3 26.6
10:40 1020 30.12 849 25.07 -1.6 29.2 90 -3 26.6
10:45 1020 30.12 849 25.07 -1.4 29.4 89 -3 26.5
10:50 1020 30.12 849 25.07 -1.4 29.4 89 -3 26.7
10:55 1019 30.09 849 25.07 -1.4 29.5 89 -2.9 26.7
11:00 1019 30.09 849 25.07 -1.5 29.3 89 -3.1 26.5
11:05 1019 30.09 849 25.07 -1.5 29.4 90 -2.9 26.8
11:10 1019 30.09 849 25.07 -1.3 29.7 88 -3 26.5
11:15 1019 30.09 849 25.07 -1.6 29.1 90 -3.1 26.5
11:20 1019 30.09 849 25.07 -1.6 29.1 91 -3 26.7
11:25 1019 30.09 849 25.07 -1.2 29.8 89 -2.9 26.8
11:30 1019 30.09 849 25.07 -0.9 30.4 87 -2.8 27
11:35 1019 30.09 849 25.07 -0.7 30.7 87 -2.7 27.2
11:40 1019 30.09 849 25.07 -0.7 30.7 85 -2.9 26.8
11:45 1019 30.09 849 25.07 -0.9 30.3 88 -2.7 27.1
11:50 1019 30.09 849 25.07 -0.7 30.7 86 -2.8 27
11:55 1019 30.09 849 25.07 -0.6 30.9 86 -2.7 27.2
12:00 1020 30.12 849 25.07 -0.7 30.8 86 -2.8 27
12:05 1020 30.12 849 25.07 -0.7 30.7 86 -2.8 26.9
12:10 1020 30.12 849 25.07 -0.7 30.8 86 -2.7 27.1
12:15 1020 30.12 849 25.07 -0.6 31 85 -2.8 27
12:20 1020 30.12 849 25.07 -0.6 30.9 85 -2.8 26.9
12:25 1020 30.12 849 25.07 -0.5 31 84 -2.9 26.9
12:30 1020 30.12 849 25.07 -0.5 31.1 84 -2.8 26.9
12:35 1020 30.12 849 25.07 -0.4 31.4 83 -2.8 26.9
12:40 1020 30.12 849 25.07 -0.2 31.6 83 -2.8 27
12:45 1020 30.12 849 25.07 -0.1 31.8 82 -2.9 26.8
12:50 1020 30.12 849 25.07 -0.1 31.8 82 -2.8 26.9
12:55 1020 30.12 849 25.07 -0.2 31.7 82 -2.9 26.9
13:00 1020 30.12 849 25.07 -0.1 31.8 81 -3 26.6
13:05 1020 30.12 849 25.07 -0.2 31.6 82 -2.9 26.7
13:10 1020 30.12 849 25.07 -0.1 31.9 80 -3.1 26.3
13:15 1020 30.12 849 25.07 -0.1 31.9 80 -3.1 26.4
13:20 1020 30.12 849 25.07 0.1 32.1 77 -3.5 25.6
13:25 1020 30.12 849 25.07 -0.2 31.6 77 -3.8 25.2
13:30 1020 30.12 849 25.07 -0.4 31.3 77 -3.9 25.1
13:35 1020 30.12 849 25.07 -0.3 31.5 79 -3.4 25.9
13:40 1020 30.12 849 25.07 -0.1 31.9 78 -3.5 25.7
13:45 1020 30.12 849 25.07 -0.2 31.7 79 -3.4 25.8
13:50 1020 30.12 850 25.1 -0.2 31.6 79 -3.4 25.8
13:55 1020 30.12 850 25.1 -0.3 31.5 79 -3.5 25.6
14:00 1021 30.15 850 25.1 -0.4 31.3 79 -3.6 25.5
14:05 1021 30.15 850 25.1 -0.5 31.1 79 -3.7 25.4
14:10 1021 30.15 850 25.1 -0.5 31.2 79 -3.7 25.4
14:15 1021 30.15 850 25.1 -0.6 30.9 80 -3.6 25.5
14:20 1021 30.15 850 25.1 -0.8 30.6 79 -3.9 24.9
14:25 1021 30.15 850 25.1 -1 30.2 80 -4.1 24.6
14:30 1021 30.15 850 25.1 -1 30.2 79 -4.2 24.5
14:35 1021 30.15 850 25.1 -1 30.1 79 -4.3 24.3
14:40 1021 30.15 850 25.1 -1 30.2 79 -4.2 24.5
14:45 1021 30.15 850 25.1 -1 30.2 80 -4.1 24.6
14:50 1021 30.15 850 25.1 -1.1 30.1 80 -4.1 24.6
14:55 1021 30.15 850 25.1 -1.1 30 81 -4 24.8
15:00 1021 30.15 850 25.1 -0.9 30.4 80 -4 24.8
15:05 1021 30.15 850 25.1 -0.8 30.6 79 -4 24.7
15:10 1021 30.15 851 25.13 -0.8 30.6 79 -3.9 25
15:15 1021 30.15 851 25.13 -0.1 31.8 74 -4.2 24.4
15:20 1022 30.18 851 25.13 0.8 33.5 71 -3.9 25
15:25 1022 30.18 851 25.13 0.9 33.6 70 -4 24.9
15:30 1022 30.18 851 25.13 1 33.7 71 -3.8 25.2
15:35 1022 30.18 851 25.13 0.8 33.4 71 -4 24.8
15:40 1022 30.18 851 25.13 0.7 33.3 71 -3.9 24.9
15:45 1022 30.18 851 25.13 0.8 33.4 69 -4.2 24.4
15:50 1022 30.18 851 25.13 0.5 33 71 -4.1 24.7
15:55 1022 30.18 851 25.13 0.5 33 70 -4.3 24.2
16:00 1022 30.18 851 25.13 0.4 32.7 71 -4.3 24.3
16:05 1022 30.18 851 25.13 0.1 32.2 71 -4.5 23.9
16:10 1022 30.18 852 25.16 0.1 32.3 71 -4.5 23.9
16:15 1022 30.18 852 25.16 -0.2 31.7 73 -4.4 24.1
16:20 1023 30.21 852 25.16 -0.3 31.5 74 -4.3 24.2
16:25 1023 30.21 852 25.16 -0.6 31 76 -4.4 24.1
16:30 1023 30.21 852 25.16 -0.8 30.6 76 -4.5 24
16:35 1023 30.21 852 25.16 -1.2 29.9 78 -4.4 24
16:40 1023 30.21 852 25.16 -1.6 29.1 81 -4.5 24
16:45 1023 30.21 852 25.16 -1.9 28.6 81 -4.7 23.6
16:50 1023 30.21 852 25.16 -2.2 28 83 -4.8 23.4
16:55 1023 30.21 852 25.16 -2.6 27.4 84 -4.9 23.2
17:00 1023 30.21 852 25.16 -2.9 26.8 84 -5.2 22.6
17:05 1023 30.21 852 25.16 -3 26.6 82 -5.7 21.7
17:10 1023 30.21 852 25.16 -3.3 26.1 85 -5.4 22.3
17:15 1023 30.21 852 25.16 -3.7 25.4 75 -7.5 18.5
17:20 1023 30.21 853 25.19 -3.8 25.2 74 -7.8 18
17:25 1023 30.21 853 25.19 -3.8 25.2 75 -7.5 18.4
17:30 1024 30.24 853 25.19 -3.8 25.1 76 -7.5 18.6
17:35 1024 30.24 853 25.19 -4 24.9 77 -7.5 18.5
17:40 1024 30.24 853 25.19 -4.4 24.1 78 -7.7 18.2
17:45 1024 30.24 853 25.19 -4.8 23.4 80 -7.8 18
17:50 1024 30.24 853 25.19 -5.1 22.8 80 -8 17.6
17:55 1024 30.24 853 25.19 -5.2 22.7 81 -8 17.6
18:00 1024 30.24 853 25.19 -4.7 23.6 80 -7.6 18.3
18:05 1024 30.24 853 25.19 -4.6 23.8 81 -7.3 18.8
18:10 1024 30.24 853 25.19 -4.2 24.4 77 -7.7 18.1
18:15 1024 30.24 853 25.19 -4.4 24.1 75 -8.1 17.4
18:20 1024 30.24 853 25.19 -4.4 24.1 73 -8.4 16.8
18:25 1024 30.24 854 25.22 -4.6 23.8 75 -8.3 17
18:30 1024 30.24 854 25.22 -4.6 23.6 75 -8.4 16.8
18:35 1024 30.24 854 25.22 -4.7 23.5 75 -8.5 16.7
18:40 1024 30.24 854 25.22 -4.8 23.3 74 -8.7 16.3
18:45 1024 30.24 854 25.22 -4.9 23.1 74 -8.9 16
18:50 1025 30.27 854 25.22 -5.3 22.4 75 -9 15.7
18:55 1024 30.24 854 25.22 -5.3 22.5 76 -9 15.9
19:00 1025 30.27 854 25.22 -4.9 23.2 74 -8.8 16.1
19:05 1024 30.24 854 25.22 -4.7 23.6 73 -8.7 16.3
19:10 1024 30.24 854 25.22 -4.5 23.9 74 -8.5 16.7
19:15 1024 30.24 854 25.22 -4.2 24.5 73 -8.3 17.1
19:20 1024 30.24 854 25.22 -4.1 24.7 74 -8.1 17.4
19:25 1024 30.24 853 25.19 -3.9 24.9 71 -8.5 16.7
19:30 1024 30.24 853 25.19 -4 24.8 72 -8.4 16.9
19:35 1024 30.24 853 25.19 -4.1 24.7 71 -8.6 16.6
19:40 1024 30.24 853 25.19 -4.3 24.3 71 -8.8 16.2
19:45 1024 30.24 853 25.19 -4.3 24.3 71 -8.7 16.3
19:50 1024 30.24 854 25.22 -4.4 24.1 72 -8.7 16.3
19:55 1024 30.24 854 25.22 -4.7 23.5 72 -9.1 15.6
20:00 1024 30.24 854 25.22 -4.8 23.4 72 -9 15.7
20:05 1024 30.24 853 25.19 -4.6 23.7 70 -9.2 15.4
20:10 1024 30.24 853 25.19 -4.4 24 69 -9.4 15.2
20:15 1024 30.24 853 25.19 -4.7 23.6 69 -9.6 14.8
20:20 1024 30.24 853 25.19 -4.5 23.9 70 -9.1 15.6
20:25 1024 30.24 853 25.19 -4.9 23.2 73 -9.1 15.7
20:30 1024 30.24 853 25.19 -5 23 71 -9.5 15
20:35 1024 30.24 853 25.19 -4.8 23.4 74 -8.7 16.4
20:40 1024 30.24 853 25.19 -4.4 24 70 -9.2 15.5
20:45 1024 30.24 854 25.22 -5.1 22.9 73 -9.3 15.3
20:50 1025 30.27 854 25.22 -5.2 22.6 71 -9.7 14.6
20:55 1025 30.27 854 25.22 -5.3 22.4 73 -9.4 15
21:00 1025 30.27 854 25.22 -5.6 22 72 -9.8 14.4
21:05 1024 30.24 854 25.22 -5.9 21.4 73 -10 14
21:10 1024 30.24 854 25.22 -6.3 20.7 73 -10.3 13.5
21:15 1024 30.24 854 25.22 -6.4 20.5 76 -10 14
21:20 1024 30.24 854 25.22 -6.2 20.9 74 -10.1 13.9
21:25 1024 30.24 854 25.22 -6.2 20.8 75 -10 14
21:30 1024 30.24 853 25.19 -6.1 21 75 -9.8 14.3
21:35 1024 30.24 853 25.19 -5.9 21.4 74 -9.8 14.4
21:40 1024 30.24 853 25.19 -5.7 21.8 72 -10 14
21:45 1024 30.24 853 25.19 -5.7 21.8 71 -10.1 13.8
21:50 1024 30.24 853 25.19 -5.7 21.7 69 -10.5 13.2
21:55 1024 30.24 853 25.19 -6.2 20.9 70 -10.8 12.6
22:00 1024 30.24 853 25.19 -6.1 21.1 69 -10.8 12.5
22:05 1024 30.24 853 25.19 -5.9 21.4 70 -10.5 13.1
22:10 1024 30.24 853 25.19 -5.5 22.2 70 -10 13.9
22:15 1024 30.24 853 25.19 -5.2 22.7 70 -9.9 14.2
22:20 1024 30.24 853 25.19 -5 22.9 70 -9.7 14.6
22:25 1024 30.24 853 25.19 -5.1 22.9 67 -10.2 13.6
22:30 1024 30.24 853 25.19 -6.1 21 74 -10 13.9
22:35 1024 30.24 853 25.19 -7 19.5 76 -10.5 13.1
22:40 1024 30.24 853 25.19 -6.8 19.7 76 -10.4 13.3
22:45 1024 30.24 853 25.19 -6.7 20 75 -10.4 13.2
22:50 1024 30.24 853 25.19 -6.3 20.7 73 -10.4 13.3
22:55 1024 30.24 853 25.19 -5.8 21.5 70 -10.5 13.2
23:00 1024 30.24 853 25.19 -5.4 22.2 69 -10.2 13.6
23:05 1024 30.24 853 25.19 -5.6 22 70 -10.2 13.6
23:10 1024 30.24 853 25.19 -5.2 22.6 67 -10.5 13.1
23:15 1024 30.24 853 25.19 -4.9 23.1 66 -10.4 13.3
23:20 1024 30.24 854 25.22 -4.7 23.5 65 -10.4 13.2
23:25 1024 30.24 854 25.22 -4.8 23.3 66 -10.2 13.7
23:30 1024 30.24 854 25.22 -5.2 22.6 67 -10.4 13.2
23:35 1024 30.24 854 25.22 -5.5 22.1 68 -10.5 13
23:40 1024 30.24 854 25.22 -5.6 21.9 68 -10.7 12.7
23:45 1024 30.24 854 25.22 -5.9 21.4 69 -10.6 12.9
23:50 1025 30.27 854 25.22 -5.8 21.5 67 -11.1 12.1
23:55 1025 30.27 854 25.22 -6.9 19.6 72 -11.1 12.1
24:00 1025 30.27 854 25.22 -7.1 19.3 71 -11.4 11.5